sensor_id;sensor_type;location;lat;lon;timestamp;pressure;altitude;pressure_sealevel;temperature;humidity
69971;BME280;57301;50.328;8.542;2023-11-19T00:01:50;98205.34;;;8.16;100.00
69971;BME280;57301;50.328;8.542;2023-11-19T00:04:17;98207.38;;;8.32;100.00
69971;BME280;57301;50.328;8.542;2023-11-19T00:06:43;98210.34;;;8.66;100.00
69971;BME280;57301;50.328;8.542;2023-11-19T00:09:10;98199.34;;;8.79;100.00
69971;BME280;57301;50.328;8.542;2023-11-19T00:11:36;98209.41;;;8.75;100.00
69971;BME280;57301;50.328;8.542;2023-11-19T00:14:04;98207.44;;;8.77;100.00
69971;BME280;57301;50.328;8.542;2023-11-19T00:16:30;98207.44;;;8.77;100.00
69971;BME280;57301;50.328;8.542;2023-11-19T00:18:58;98208.31;;;8.78;100.00
69971;BME280;57301;50.328;8.542;2023-11-19T00:21:26;98203.97;;;8.95;100.00
69971;BME280;57301;50.328;8.542;2023-11-19T00:23:54;98195.53;;;8.81;99.88
69971;BME280;57301;50.328;8.542;2023-11-19T00:26:21;98206.25;;;8.89;100.00
69971;BME280;57301;50.328;8.542;2023-11-19T00:28:48;98203.59;;;8.89;100.00
69971;BME280;57301;50.328;8.542;2023-11-19T00:31:15;98199.66;;;9.11;99.87
69971;BME280;57301;50.328;8.542;2023-11-19T00:33:41;98186.41;;;9.02;99.35
69971;BME280;57301;50.328;8.542;2023-11-19T00:36:11;98187.88;;;8.96;99.29
69971;BME280;57301;50.328;8.542;2023-11-19T00:38:37;98178.44;;;9.02;99.88
69971;BME280;57301;50.328;8.542;2023-11-19T00:41:04;98182.88;;;9.11;99.64
69971;BME280;57301;50.328;8.542;2023-11-19T00:43:30;98174.06;;;9.10;99.79
69971;BME280;57301;50.328;8.542;2023-11-19T00:45:57;98191.75;;;9.20;99.37
69971;BME280;57301;50.328;8.542;2023-11-19T00:48:24;98194.50;;;9.10;99.05
69971;BME280;57301;50.328;8.542;2023-11-19T00:50:50;98185.69;;;9.27;98.95
69971;BME280;57301;50.328;8.542;2023-11-19T00:53:17;98176.63;;;9.20;98.43
69971;BME280;57301;50.328;8.542;2023-11-19T00:55:43;98173.13;;;9.20;98.80
69971;BME280;57301;50.328;8.542;2023-11-19T00:58:13;98171.44;;;9.36;99.11
69971;BME280;57301;50.328;8.542;2023-11-19T01:00:39;98166.19;;;9.27;98.60
69971;BME280;57301;50.328;8.542;2023-11-19T01:03:06;98148.94;;;9.31;98.99
69971;BME280;57301;50.328;8.542;2023-11-19T01:05:33;98146.84;;;9.60;97.31
69971;BME280;57301;50.328;8.542;2023-11-19T01:08:00;98143.84;;;9.37;97.75
69971;BME280;57301;50.328;8.542;2023-11-19T01:10:26;98133.53;;;9.34;97.26
69971;BME280;57301;50.328;8.542;2023-11-19T01:12:53;98134.19;;;9.36;98.37
69971;BME280;57301;50.328;8.542;2023-11-19T01:15:20;98128.28;;;9.51;97.75
69971;BME280;57301;50.328;8.542;2023-11-19T01:17:47;98131.53;;;9.36;98.30
69971;BME280;57301;50.328;8.542;2023-11-19T01:20:16;98126.34;;;9.53;98.50
69971;BME280;57301;50.328;8.542;2023-11-19T01:22:43;98131.19;;;9.83;96.67
69971;BME280;57301;50.328;8.542;2023-11-19T01:25:10;98132.38;;;9.63;97.15
69971;BME280;57301;50.328;8.542;2023-11-19T01:27:36;98127.78;;;9.73;97.12
69971;BME280;57301;50.328;8.542;2023-11-19T01:30:03;98143.38;;;9.94;96.79
69971;BME280;57301;50.328;8.542;2023-11-19T01:32:32;98131.56;;;9.88;96.63
69971;BME280;57301;50.328;8.542;2023-11-19T01:34:58;98141.13;;;9.81;98.13
69971;BME280;57301;50.328;8.542;2023-11-19T01:37:25;98121.72;;;9.89;96.78
69971;BME280;57301;50.328;8.542;2023-11-19T01:39:51;98129.38;;;9.92;96.93
69971;BME280;57301;50.328;8.542;2023-11-19T01:42:21;98127.94;;;9.72;97.48
69971;BME280;57301;50.328;8.542;2023-11-19T01:45:00;98119.56;;;9.92;96.92
69971;BME280;57301;50.328;8.542;2023-11-19T01:47:28;98112.22;;;9.86;97.00
69971;BME280;57301;50.328;8.542;2023-11-19T01:49:56;98103.75;;;9.91;96.78
69971;BME280;57301;50.328;8.542;2023-11-19T01:52:23;98092.09;;;9.92;97.21
69971;BME280;57301;50.328;8.542;2023-11-19T01:54:52;98099.66;;;9.71;96.59
69971;BME280;57301;50.328;8.542;2023-11-19T01:57:22;98097.34;;;9.76;96.38
69971;BME280;57301;50.328;8.542;2023-11-19T01:59:51;98103.56;;;9.84;95.72
69971;BME280;57301;50.328;8.542;2023-11-19T02:02:18;98103.00;;;9.73;96.51
69971;BME280;57301;50.328;8.542;2023-11-19T02:04:50;98091.88;;;9.51;96.58
69971;BME280;57301;50.328;8.542;2023-11-19T02:07:19;98094.47;;;9.69;95.79
69971;BME280;57301;50.328;8.542;2023-11-19T02:09:45;98103.97;;;9.72;96.72
69971;BME280;57301;50.328;8.542;2023-11-19T02:12:12;98102.78;;;9.66;97.11
69971;BME280;57301;50.328;8.542;2023-11-19T02:14:38;98103.78;;;9.99;96.04
69971;BME280;57301;50.328;8.542;2023-11-19T02:17:05;98102.94;;;9.99;96.25
69971;BME280;57301;50.328;8.542;2023-11-19T02:19:32;98093.53;;;9.78;96.20
69971;BME280;57301;50.328;8.542;2023-11-19T02:21:58;98084.66;;;9.69;97.50
69971;BME280;57301;50.328;8.542;2023-11-19T02:24:28;98079.06;;;9.81;97.37
69971;BME280;57301;50.328;8.542;2023-11-19T02:26:59;98080.25;;;9.86;96.86
69971;BME280;57301;50.328;8.542;2023-11-19T02:29:28;98065.75;;;9.81;97.30
69971;BME280;57301;50.328;8.542;2023-11-19T02:31:54;98068.41;;;9.81;97.75
69971;BME280;57301;50.328;8.542;2023-11-19T02:34:22;98045.31;;;9.89;97.56
69971;BME280;57301;50.328;8.542;2023-11-19T02:36:49;98056.44;;;9.85;97.36
69971;BME280;57301;50.328;8.542;2023-11-19T02:39:16;98045.91;;;9.75;98.15
69971;BME280;57301;50.328;8.542;2023-11-19T02:41:48;98048.09;;;9.80;97.62
69971;BME280;57301;50.328;8.542;2023-11-19T02:44:17;98046.97;;;9.82;98.33
69971;BME280;57301;50.328;8.542;2023-11-19T02:46:43;98035.22;;;9.67;99.16
69971;BME280;57301;50.328;8.542;2023-11-19T02:49:10;98042.59;;;9.81;98.98
69971;BME280;57301;50.328;8.542;2023-11-19T02:51:37;98049.91;;;9.71;99.41
69971;BME280;57301;50.328;8.542;2023-11-19T02:54:03;98054.91;;;9.74;100.00
69971;BME280;57301;50.328;8.542;2023-11-19T02:56:30;98048.53;;;10.01;99.18
69971;BME280;57301;50.328;8.542;2023-11-19T02:59:01;98056.91;;;9.80;99.38
69971;BME280;57301;50.328;8.542;2023-11-19T03:01:38;98053.03;;;10.01;99.20
69971;BME280;57301;50.328;8.542;2023-11-19T03:04:09;98030.38;;;9.96;98.44
69971;BME280;57301;50.328;8.542;2023-11-19T03:06:38;98022.78;;;9.76;99.31
69971;BME280;57301;50.328;8.542;2023-11-19T03:09:05;98031.13;;;9.81;99.71
69971;BME280;57301;50.328;8.542;2023-11-19T03:11:36;98034.16;;;9.86;98.01
69971;BME280;57301;50.328;8.542;2023-11-19T03:14:03;98039.81;;;9.83;98.71
69971;BME280;57301;50.328;8.542;2023-11-19T03:16:30;98039.63;;;9.76;98.50
69971;BME280;57301;50.328;8.542;2023-11-19T03:18:56;98033.97;;;9.87;98.82
69971;BME280;57301;50.328;8.542;2023-11-19T03:21:29;98031.97;;;9.81;97.71
69971;BME280;57301;50.328;8.542;2023-11-19T03:23:58;98019.25;;;10.01;98.16
69971;BME280;57301;50.328;8.542;2023-11-19T03:26:27;98015.66;;;9.84;97.80
69971;BME280;57301;50.328;8.542;2023-11-19T03:28:53;98025.03;;;9.96;97.70
69971;BME280;57301;50.328;8.542;2023-11-19T03:31:20;98028.19;;;9.92;98.29
69971;BME280;57301;50.328;8.542;2023-11-19T03:33:47;98005.41;;;9.98;98.92
69971;BME280;57301;50.328;8.542;2023-11-19T03:36:13;98009.13;;;10.13;97.83
69971;BME280;57301;50.328;8.542;2023-11-19T03:38:40;98007.59;;;10.18;97.42
69971;BME280;57301;50.328;8.542;2023-11-19T03:41:12;98016.75;;;10.16;98.33
69971;BME280;57301;50.328;8.542;2023-11-19T03:43:40;98018.41;;;10.09;99.13
69971;BME280;57301;50.328;8.542;2023-11-19T03:48:43;98011.25;;;10.17;98.30
69971;BME280;57301;50.328;8.542;2023-11-19T03:51:10;98008.41;;;10.03;99.13
69971;BME280;57301;50.328;8.542;2023-11-19T03:53:38;98018.78;;;10.14;98.13
69971;BME280;57301;50.328;8.542;2023-11-19T03:56:05;98021.44;;;10.14;98.11
69971;BME280;57301;50.328;8.542;2023-11-19T03:58:31;98011.66;;;10.31;97.30
69971;BME280;57301;50.328;8.542;2023-11-19T04:00:58;98015.28;;;10.21;98.47
69971;BME280;57301;50.328;8.542;2023-11-19T04:03:24;98007.84;;;10.25;98.25
69971;BME280;57301;50.328;8.542;2023-11-19T04:05:51;98008.28;;;10.20;98.58
69971;BME280;57301;50.328;8.542;2023-11-19T04:08:17;98002.97;;;10.20;97.99
69971;BME280;57301;50.328;8.542;2023-11-19T04:10:44;98003.97;;;10.19;97.39
69971;BME280;57301;50.328;8.542;2023-11-19T04:13:10;97995.13;;;10.19;97.26
69971;BME280;57301;50.328;8.542;2023-11-19T04:15:37;97998.16;;;10.24;97.29
69971;BME280;57301;50.328;8.542;2023-11-19T04:18:03;98002.44;;;10.17;97.66
69971;BME280;57301;50.328;8.542;2023-11-19T04:20:30;97994.34;;;10.27;98.42
69971;BME280;57301;50.328;8.542;2023-11-19T04:22:57;97990.78;;;10.18;98.54
69971;BME280;57301;50.328;8.542;2023-11-19T04:25:26;97997.53;;;10.38;97.21
69971;BME280;57301;50.328;8.542;2023-11-19T04:27:53;98000.34;;;10.37;97.31
69971;BME280;57301;50.328;8.542;2023-11-19T04:30:20;97987.00;;;10.37;98.20
69971;BME280;57301;50.328;8.542;2023-11-19T04:32:46;97986.19;;;10.28;97.54
69971;BME280;57301;50.328;8.542;2023-11-19T04:35:14;97973.53;;;10.46;97.62
69971;BME280;57301;50.328;8.542;2023-11-19T04:37:41;97975.53;;;10.36;97.64
69971;BME280;57301;50.328;8.542;2023-11-19T04:40:08;97979.19;;;10.27;98.02
69971;BME280;57301;50.328;8.542;2023-11-19T04:42:36;97986.34;;;10.43;97.43
69971;BME280;57301;50.328;8.542;2023-11-19T04:45:03;97977.72;;;10.57;96.96
69971;BME280;57301;50.328;8.542;2023-11-19T04:47:32;97987.56;;;10.57;96.40
69971;BME280;57301;50.328;8.542;2023-11-19T04:49:59;97993.72;;;10.57;96.91
69971;BME280;57301;50.328;8.542;2023-11-19T04:52:26;97996.53;;;10.47;96.66
69971;BME280;57301;50.328;8.542;2023-11-19T04:54:52;97990.88;;;10.51;97.50
69971;BME280;57301;50.328;8.542;2023-11-19T04:57:19;97995.53;;;10.65;96.68
69971;BME280;57301;50.328;8.542;2023-11-19T04:59:45;97991.88;;;10.66;97.06
69971;BME280;57301;50.328;8.542;2023-11-19T05:02:13;97990.34;;;10.80;97.32
69971;BME280;57301;50.328;8.542;2023-11-19T05:04:43;97986.72;;;10.81;96.39
69971;BME280;57301;50.328;8.542;2023-11-19T05:07:13;97993.88;;;10.88;96.46
69971;BME280;57301;50.328;8.542;2023-11-19T05:09:40;97993.19;;;10.94;95.50
69971;BME280;57301;50.328;8.542;2023-11-19T05:12:07;97984.53;;;10.76;96.88
69971;BME280;57301;50.328;8.542;2023-11-19T05:14:38;97990.84;;;10.91;97.01
69971;BME280;57301;50.328;8.542;2023-11-19T05:17:04;97983.69;;;10.92;95.98
69971;BME280;57301;50.328;8.542;2023-11-19T05:19:31;97974.22;;;10.81;95.94
69971;BME280;57301;50.328;8.542;2023-11-19T05:21:58;97993.03;;;10.88;96.14
69971;BME280;57301;50.328;8.542;2023-11-19T05:24:24;97996.38;;;10.82;95.62
69971;BME280;57301;50.328;8.542;2023-11-19T05:26:51;98013.19;;;10.90;95.79
69971;BME280;57301;50.328;8.542;2023-11-19T05:29:18;98003.72;;;10.88;96.06
69971;BME280;57301;50.328;8.542;2023-11-19T05:31:45;97987.19;;;10.92;95.96
69971;BME280;57301;50.328;8.542;2023-11-19T05:34:11;97986.69;;;10.97;95.31
69971;BME280;57301;50.328;8.542;2023-11-19T05:36:38;97983.19;;;10.88;95.90
69971;BME280;57301;50.328;8.542;2023-11-19T05:39:06;97981.53;;;10.95;95.31
69971;BME280;57301;50.328;8.542;2023-11-19T05:41:32;97979.53;;;10.89;95.54
69971;BME280;57301;50.328;8.542;2023-11-19T05:43:59;97984.53;;;11.00;95.15
69971;BME280;57301;50.328;8.542;2023-11-19T05:46:25;97976.50;;;10.92;95.27
69971;BME280;57301;50.328;8.542;2023-11-19T05:48:53;97980.19;;;10.91;95.61
69971;BME280;57301;50.328;8.542;2023-11-19T05:51:20;97972.19;;;10.83;95.69
69971;BME280;57301;50.328;8.542;2023-11-19T05:53:47;97982.69;;;11.01;95.09
69971;BME280;57301;50.328;8.542;2023-11-19T05:56:14;97975.03;;;10.90;95.57
69971;BME280;57301;50.328;8.542;2023-11-19T05:58:42;97975.88;;;10.82;96.00
69971;BME280;57301;50.328;8.542;2023-11-19T06:01:10;97989.22;;;10.82;96.05
69971;BME280;57301;50.328;8.542;2023-11-19T06:03:37;97996.88;;;10.77;96.43
69971;BME280;57301;50.328;8.542;2023-11-19T06:06:04;97998.22;;;10.81;95.31
69971;BME280;57301;50.328;8.542;2023-11-19T06:08:32;97993.72;;;10.82;96.01
69971;BME280;57301;50.328;8.542;2023-11-19T06:10:58;98004.03;;;10.76;96.90
69971;BME280;57301;50.328;8.542;2023-11-19T06:13:25;98007.22;;;10.88;96.08
69971;BME280;57301;50.328;8.542;2023-11-19T06:15:52;98017.53;;;10.91;96.39
69971;BME280;57301;50.328;8.542;2023-11-19T06:18:19;98010.19;;;11.01;96.93
69971;BME280;57301;50.328;8.542;2023-11-19T06:20:47;98023.34;;;11.36;95.81
69971;BME280;57301;50.328;8.542;2023-11-19T06:23:13;98013.50;;;11.36;95.50
69971;BME280;57301;50.328;8.542;2023-11-19T06:25:40;98010.78;;;11.44;95.48
69971;BME280;57301;50.328;8.542;2023-11-19T06:28:07;98013.47;;;11.44;95.39
69971;BME280;57301;50.328;8.542;2023-11-19T06:30:33;97999.88;;;11.62;94.46
69971;BME280;57301;50.328;8.542;2023-11-19T06:33:00;98003.09;;;11.41;95.16
69971;BME280;57301;50.328;8.542;2023-11-19T06:35:27;97997.72;;;11.57;94.48
69971;BME280;57301;50.328;8.542;2023-11-19T06:37:55;98005.94;;;11.48;94.60
69971;BME280;57301;50.328;8.542;2023-11-19T06:40:22;98009.59;;;11.47;94.37
69971;BME280;57301;50.328;8.542;2023-11-19T06:42:48;98013.78;;;11.49;94.61
69971;BME280;57301;50.328;8.542;2023-11-19T06:45:15;98014.94;;;11.47;94.72
69971;BME280;57301;50.328;8.542;2023-11-19T06:47:42;98023.41;;;11.58;94.74
69971;BME280;57301;50.328;8.542;2023-11-19T06:50:08;98030.22;;;11.69;94.45
69971;BME280;57301;50.328;8.542;2023-11-19T06:52:35;98027.06;;;11.66;94.19
69971;BME280;57301;50.328;8.542;2023-11-19T06:55:04;98024.56;;;11.72;94.02
69971;BME280;57301;50.328;8.542;2023-11-19T06:57:34;98030.88;;;11.71;94.45
69971;BME280;57301;50.328;8.542;2023-11-19T07:00:01;98027.75;;;11.60;94.53
69971;BME280;57301;50.328;8.542;2023-11-19T07:02:28;98025.72;;;11.70;94.37
69971;BME280;57301;50.328;8.542;2023-11-19T07:04:55;98024.25;;;11.67;94.21
69971;BME280;57301;50.328;8.542;2023-11-19T07:07:21;98017.19;;;11.74;94.00
69971;BME280;57301;50.328;8.542;2023-11-19T07:09:48;98023.38;;;11.75;93.97
69971;BME280;57301;50.328;8.542;2023-11-19T07:12:14;98019.88;;;11.74;93.66
69971;BME280;57301;50.328;8.542;2023-11-19T07:14:42;98025.53;;;11.79;93.83
69971;BME280;57301;50.328;8.542;2023-11-19T07:17:08;98035.50;;;11.94;92.54
69971;BME280;57301;50.328;8.542;2023-11-19T07:19:36;98039.22;;;11.84;92.90
69971;BME280;57301;50.328;8.542;2023-11-19T07:22:04;98030.25;;;12.17;91.26
69971;BME280;57301;50.328;8.542;2023-11-19T07:24:32;98022.19;;;12.48;89.19
69971;BME280;57301;50.328;8.542;2023-11-19T07:26:58;98028.13;;;12.35;89.26
69971;BME280;57301;50.328;8.542;2023-11-19T07:29:25;98020.81;;;12.52;88.35
69971;BME280;57301;50.328;8.542;2023-11-19T07:31:55;98023.91;;;12.63;88.28
69971;BME280;57301;50.328;8.542;2023-11-19T07:34:24;98024.09;;;12.85;86.97
69971;BME280;57301;50.328;8.542;2023-11-19T07:36:51;98026.66;;;12.78;85.92
69971;BME280;57301;50.328;8.542;2023-11-19T07:39:17;98033.28;;;12.82;85.62
69971;BME280;57301;50.328;8.542;2023-11-19T07:41:44;98036.72;;;13.14;84.72
69971;BME280;57301;50.328;8.542;2023-11-19T07:44:10;98035.44;;;12.87;84.36
69971;BME280;57301;50.328;8.542;2023-11-19T07:46:37;98036.34;;;13.17;83.30
69971;BME280;57301;50.328;8.542;2023-11-19T07:49:04;98039.72;;;12.96;83.40
69971;BME280;57301;50.328;8.542;2023-11-19T07:51:31;98041.41;;;13.50;81.44
69971;BME280;57301;50.328;8.542;2023-11-19T07:53:57;98052.81;;;13.81;79.27
69971;BME280;57301;50.328;8.542;2023-11-19T07:56:24;98047.22;;;14.27;77.69
69971;BME280;57301;50.328;8.542;2023-11-19T07:58:51;98060.47;;;14.65;73.15
69971;BME280;57301;50.328;8.542;2023-11-19T08:01:18;98054.16;;;15.22;71.21
69971;BME280;57301;50.328;8.542;2023-11-19T08:03:45;98057.00;;;15.63;70.00
69971;BME280;57301;50.328;8.542;2023-11-19T08:06:14;98058.56;;;16.20;68.35
69971;BME280;57301;50.328;8.542;2023-11-19T08:08:40;98067.00;;;15.76;68.83
69971;BME280;57301;50.328;8.542;2023-11-19T08:11:07;98076.50;;;14.58;72.61
69971;BME280;57301;50.328;8.542;2023-11-19T08:13:33;98073.69;;;14.66;72.89
69971;BME280;57301;50.328;8.542;2023-11-19T08:16:00;98080.03;;;14.29;73.95
69971;BME280;57301;50.328;8.542;2023-11-19T08:18:27;98071.00;;;14.30;73.51
69971;BME280;57301;50.328;8.542;2023-11-19T08:20:53;98075.59;;;14.21;73.86
69971;BME280;57301;50.328;8.542;2023-11-19T08:23:20;98075.31;;;15.81;68.15
69971;BME280;57301;50.328;8.542;2023-11-19T08:25:47;98075.06;;;16.52;66.22
69971;BME280;57301;50.328;8.542;2023-11-19T08:28:13;98073.41;;;16.09;66.97
69971;BME280;57301;50.328;8.542;2023-11-19T08:30:40;98069.44;;;15.71;67.58
69971;BME280;57301;50.328;8.542;2023-11-19T08:33:07;98075.03;;;15.20;69.94
69971;BME280;57301;50.328;8.542;2023-11-19T08:35:33;98075.53;;;15.58;69.76
69971;BME280;57301;50.328;8.542;2023-11-19T08:38:00;98077.03;;;16.30;67.42
69971;BME280;57301;50.328;8.542;2023-11-19T08:40:27;98068.41;;;16.48;66.49
69971;BME280;57301;50.328;8.542;2023-11-19T08:42:54;98076.72;;;16.59;64.54
69971;BME280;57301;50.328;8.542;2023-11-19T08:45:20;98069.28;;;16.68;65.24
69971;BME280;57301;50.328;8.542;2023-11-19T08:47:47;98068.16;;;16.36;64.50
69971;BME280;57301;50.328;8.542;2023-11-19T08:50:13;98065.91;;;16.46;63.08
69971;BME280;57301;50.328;8.542;2023-11-19T08:52:40;98064.47;;;16.50;61.20
69971;BME280;57301;50.328;8.542;2023-11-19T08:55:07;98077.00;;;16.71;60.47
69971;BME280;57301;50.328;8.542;2023-11-19T08:57:33;98067.81;;;16.52;60.41
69971;BME280;57301;50.328;8.542;2023-11-19T09:00:00;98064.38;;;16.78;59.00
69971;BME280;57301;50.328;8.542;2023-11-19T09:02:26;98061.91;;;16.29;60.21
69971;BME280;57301;50.328;8.542;2023-11-19T09:04:53;98070.41;;;16.32;60.49
69971;BME280;57301;50.328;8.542;2023-11-19T09:07:20;98085.47;;;16.20;61.00
69971;BME280;57301;50.328;8.542;2023-11-19T09:09:47;98073.38;;;17.25;57.76
69971;BME280;57301;50.328;8.542;2023-11-19T09:12:14;98062.16;;;17.35;57.20
69971;BME280;57301;50.328;8.542;2023-11-19T09:14:40;98070.47;;;17.20;57.47
69971;BME280;57301;50.328;8.542;2023-11-19T09:17:08;98073.34;;;17.52;56.91
69971;BME280;57301;50.328;8.542;2023-11-19T09:19:36;98063.59;;;17.24;57.15
69971;BME280;57301;50.328;8.542;2023-11-19T09:22:02;98071.47;;;17.06;57.49
69971;BME280;57301;50.328;8.542;2023-11-19T09:24:29;98076.66;;;17.01;56.94
69971;BME280;57301;50.328;8.542;2023-11-19T09:26:56;98075.84;;;17.40;56.21
69971;BME280;57301;50.328;8.542;2023-11-19T09:29:22;98065.00;;;16.87;56.30
69971;BME280;57301;50.328;8.542;2023-11-19T09:31:50;98063.38;;;17.06;55.81
69971;BME280;57301;50.328;8.542;2023-11-19T09:34:16;98054.25;;;17.60;54.23
69971;BME280;57301;50.328;8.542;2023-11-19T09:36:43;98069.94;;;18.16;52.34
69971;BME280;57301;50.328;8.542;2023-11-19T09:39:11;98054.69;;;17.30;53.56
69971;BME280;57301;50.328;8.542;2023-11-19T09:41:39;98073.16;;;18.44;51.17
69971;BME280;57301;50.328;8.542;2023-11-19T09:44:06;98065.06;;;18.44;50.12
69971;BME280;57301;50.328;8.542;2023-11-19T09:46:33;98087.84;;;18.68;49.07
69971;BME280;57301;50.328;8.542;2023-11-19T09:49:00;98081.19;;;18.58;47.99
69971;BME280;57301;50.328;8.542;2023-11-19T09:51:29;98084.38;;;19.24;47.24
69971;BME280;57301;50.328;8.542;2023-11-19T09:53:55;98077.66;;;19.33;46.43
69971;BME280;57301;50.328;8.542;2023-11-19T09:56:22;98074.28;;;19.06;46.07
69971;BME280;57301;50.328;8.542;2023-11-19T09:58:49;98074.69;;;19.67;44.97
69971;BME280;57301;50.328;8.542;2023-11-19T10:01:16;98078.44;;;19.66;44.48
69971;BME280;57301;50.328;8.542;2023-11-19T10:04:23;98064.28;;;20.92;42.42
69971;BME280;57301;50.328;8.542;2023-11-19T10:06:51;98073.19;;;21.64;40.74
69971;BME280;57301;50.328;8.542;2023-11-19T10:09:18;98069.66;;;21.76;40.89
69971;BME280;57301;50.328;8.542;2023-11-19T10:11:45;98072.38;;;21.76;41.19
69971;BME280;57301;50.328;8.542;2023-11-19T10:14:12;98075.53;;;21.84;41.24
69971;BME280;57301;50.328;8.542;2023-11-19T10:16:40;98077.78;;;21.99;39.73
69971;BME280;57301;50.328;8.542;2023-11-19T10:19:07;98084.31;;;23.02;38.79
69971;BME280;57301;50.328;8.542;2023-11-19T10:21:33;98078.19;;;22.55;38.40
69971;BME280;57301;50.328;8.542;2023-11-19T10:24:01;98094.09;;;22.22;39.20
69971;BME280;57301;50.328;8.542;2023-11-19T10:26:28;98092.41;;;22.21;38.37
69971;BME280;57301;50.328;8.542;2023-11-19T10:28:55;98081.56;;;22.21;38.68
69971;BME280;57301;50.328;8.542;2023-11-19T10:31:22;98067.34;;;22.43;37.66
69971;BME280;57301;50.328;8.542;2023-11-19T10:33:53;98066.34;;;22.61;37.66
69971;BME280;57301;50.328;8.542;2023-11-19T10:36:20;98069.06;;;21.85;38.50
69971;BME280;57301;50.328;8.542;2023-11-19T10:38:53;98077.84;;;23.37;36.26
69971;BME280;57301;50.328;8.542;2023-11-19T10:41:30;98077.72;;;22.46;37.74
69971;BME280;57301;50.328;8.542;2023-11-19T10:43:58;98061.94;;;23.00;36.77
69971;BME280;57301;50.328;8.542;2023-11-19T10:46:37;98060.44;;;21.00;39.04
69971;BME280;57301;50.328;8.542;2023-11-19T10:49:04;98059.78;;;21.28;38.97
69971;BME280;57301;50.328;8.542;2023-11-19T10:51:33;98058.56;;;21.24;39.33
69971;BME280;57301;50.328;8.542;2023-11-19T10:54:03;98060.44;;;21.65;38.56
69971;BME280;57301;50.328;8.542;2023-11-19T10:56:33;98059.25;;;21.84;38.63
69971;BME280;57301;50.328;8.542;2023-11-19T10:59:00;98070.97;;;21.73;38.76
69971;BME280;57301;50.328;8.542;2023-11-19T11:01:33;98065.69;;;21.25;38.66
69971;BME280;57301;50.328;8.542;2023-11-19T11:04:02;98057.69;;;20.88;39.53
69971;BME280;57301;50.328;8.542;2023-11-19T11:06:33;98054.25;;;20.92;39.91
69971;BME280;57301;50.328;8.542;2023-11-19T11:09:00;98062.63;;;20.91;40.06
69971;BME280;57301;50.328;8.542;2023-11-19T11:11:27;98040.59;;;21.99;38.22
69971;BME280;57301;50.328;8.542;2023-11-19T11:13:54;98049.09;;;21.03;40.00
69971;BME280;57301;50.328;8.542;2023-11-19T11:16:23;98041.94;;;21.08;40.04
69971;BME280;57301;50.328;8.542;2023-11-19T11:18:51;98038.34;;;22.08;38.90
69971;BME280;57301;50.328;8.542;2023-11-19T11:21:21;98041.41;;;22.00;38.45
69971;BME280;57301;50.328;8.542;2023-11-19T11:23:56;98036.28;;;22.39;37.62
69971;BME280;57301;50.328;8.542;2023-11-19T11:29:28;98032.09;;;22.19;38.57
69971;BME280;57301;50.328;8.542;2023-11-19T11:37:47;98024.66;;;23.29;36.54
69971;BME280;57301;50.328;8.542;2023-11-19T11:40:19;98028.19;;;23.63;36.11
69971;BME280;57301;50.328;8.542;2023-11-19T11:42:46;98034.09;;;21.89;38.59
69971;BME280;57301;50.328;8.542;2023-11-19T11:45:14;98026.31;;;22.16;37.46
69971;BME280;57301;50.328;8.542;2023-11-19T11:50:12;98022.75;;;20.80;40.71
69971;BME280;57301;50.328;8.542;2023-11-19T11:57:57;98025.75;;;21.32;39.82
69971;BME280;57301;50.328;8.542;2023-11-19T12:00:37;98040.13;;;20.60;40.57
69971;BME280;57301;50.328;8.542;2023-11-19T12:03:05;98027.97;;;21.46;39.12
69971;BME280;57301;50.328;8.542;2023-11-19T12:05:33;98015.72;;;21.32;38.74
69971;BME280;57301;50.328;8.542;2023-11-19T12:08:05;98021.72;;;21.34;39.27
69971;BME280;57301;50.328;8.542;2023-11-19T12:10:45;98031.69;;;22.27;38.13
69971;BME280;57301;50.328;8.542;2023-11-19T12:13:14;98028.78;;;23.48;36.41
69971;BME280;57301;50.328;8.542;2023-11-19T12:18:30;98017.44;;;22.20;37.34
69971;BME280;57301;50.328;8.542;2023-11-19T12:21:00;98018.69;;;20.40;40.22
69971;BME280;57301;50.328;8.542;2023-11-19T12:23:28;98010.66;;;20.52;39.56
69971;BME280;57301;50.328;8.542;2023-11-19T12:25:56;98006.59;;;20.06;40.26
69971;BME280;57301;50.328;8.542;2023-11-19T12:28:23;97990.56;;;21.60;38.25
69971;BME280;57301;50.328;8.542;2023-11-19T12:30:53;97990.31;;;21.27;38.91
69971;BME280;57301;50.328;8.542;2023-11-19T12:33:20;97990.00;;;21.58;38.92
69971;BME280;57301;50.328;8.542;2023-11-19T12:35:47;97988.09;;;21.82;38.44
69971;BME280;57301;50.328;8.542;2023-11-19T12:38:19;97992.81;;;21.75;38.58
69971;BME280;57301;50.328;8.542;2023-11-19T12:40:47;97981.94;;;21.98;38.38
69971;BME280;57301;50.328;8.542;2023-11-19T12:43:23;97976.75;;;21.27;38.87
69971;BME280;57301;50.328;8.542;2023-11-19T12:45:49;97975.16;;;21.61;38.15
69971;BME280;57301;50.328;8.542;2023-11-19T12:48:16;97962.34;;;21.03;38.86
69971;BME280;57301;50.328;8.542;2023-11-19T12:50:56;97964.88;;;21.51;37.98
69971;BME280;57301;50.328;8.542;2023-11-19T12:53:24;97950.25;;;20.63;38.42
69971;BME280;57301;50.328;8.542;2023-11-19T12:55:53;97944.34;;;20.36;38.39
69971;BME280;57301;50.328;8.542;2023-11-19T12:58:33;97934.34;;;21.56;37.10
69971;BME280;57301;50.328;8.542;2023-11-19T13:01:06;97940.53;;;20.98;38.20
69971;BME280;57301;50.328;8.542;2023-11-19T13:03:35;97941.13;;;20.46;38.86
69971;BME280;57301;50.328;8.542;2023-11-19T13:06:09;97943.81;;;18.99;41.17
69971;BME280;57301;50.328;8.542;2023-11-19T13:08:42;97947.97;;;18.01;43.41
69971;BME280;57301;50.328;8.542;2023-11-19T13:11:10;97936.97;;;19.22;41.33
69971;BME280;57301;50.328;8.542;2023-11-19T13:13:57;97951.91;;;19.24;40.97
69971;BME280;57301;50.328;8.542;2023-11-19T13:16:25;97946.00;;;19.34;41.21
69971;BME280;57301;50.328;8.542;2023-11-19T13:18:53;97938.69;;;19.78;40.50
69971;BME280;57301;50.328;8.542;2023-11-19T13:21:20;97922.66;;;20.55;39.00
69971;BME280;57301;50.328;8.542;2023-11-19T13:23:46;97924.97;;;19.91;40.19
69971;BME280;57301;50.328;8.542;2023-11-19T13:26:12;97925.97;;;20.57;39.26
69971;BME280;57301;50.328;8.542;2023-11-19T13:28:39;97938.53;;;20.81;39.25